sensor_id;sensor_type;location;lat;lon;timestamp;pressure;altitude;pressure_sealevel;temperature;humidity
63500;BME280;49654;51.142;14.924;2023-08-06T00:01:54;98386.22;;;17.39;88.59
63500;BME280;49654;51.142;14.924;2023-08-06T00:04:22;98363.44;;;17.27;87.94
63500;BME280;49654;51.142;14.924;2023-08-06T00:06:49;98384.94;;;17.41;87.59
63500;BME280;49654;51.142;14.924;2023-08-06T00:09:16;98390.72;;;17.26;87.84
63500;BME280;49654;51.142;14.924;2023-08-06T00:11:43;98327.44;;;16.77;88.71
63500;BME280;49654;51.142;14.924;2023-08-06T00:14:12;98306.31;;;16.84;87.71
63500;BME280;49654;51.142;14.924;2023-08-06T00:16:43;98374.41;;;17.24;88.11
63500;BME280;49654;51.142;14.924;2023-08-06T00:19:11;98357.78;;;17.02;88.33
63500;BME280;49654;51.142;14.924;2023-08-06T00:21:38;98384.34;;;17.22;89.01
63500;BME280;49654;51.142;14.924;2023-08-06T00:24:05;98360.00;;;17.10;88.93
63500;BME280;49654;51.142;14.924;2023-08-06T00:26:32;98384.78;;;17.31;89.05
63500;BME280;49654;51.142;14.924;2023-08-06T00:28:59;98318.88;;;16.99;89.29
63500;BME280;49654;51.142;14.924;2023-08-06T00:31:26;98326.56;;;17.17;88.99
63500;BME280;49654;51.142;14.924;2023-08-06T00:33:53;98355.13;;;17.31;88.25
63500;BME280;49654;51.142;14.924;2023-08-06T00:36:22;98350.34;;;17.27;88.37
63500;BME280;49654;51.142;14.924;2023-08-06T00:38:49;98350.63;;;17.14;88.85
63500;BME280;49654;51.142;14.924;2023-08-06T00:41:16;98351.16;;;16.99;89.35
63500;BME280;49654;51.142;14.924;2023-08-06T00:43:43;98337.25;;;16.99;89.73
63500;BME280;49654;51.142;14.924;2023-08-06T00:46:10;98304.03;;;16.88;88.90
63500;BME280;49654;51.142;14.924;2023-08-06T00:48:37;98332.59;;;17.18;89.21
63500;BME280;49654;51.142;14.924;2023-08-06T00:51:05;98303.16;;;16.99;88.99
63500;BME280;49654;51.142;14.924;2023-08-06T00:53:33;98319.69;;;17.16;89.29
63500;BME280;49654;51.142;14.924;2023-08-06T00:56:01;98342.94;;;17.41;89.15
63500;BME280;49654;51.142;14.924;2023-08-06T00:58:28;98345.16;;;17.33;88.40
63500;BME280;49654;51.142;14.924;2023-08-06T01:00:55;98335.31;;;17.23;88.83
63500;BME280;49654;51.142;14.924;2023-08-06T01:03:22;98300.84;;;17.02;89.08
63500;BME280;49654;51.142;14.924;2023-08-06T01:05:50;98337.16;;;17.39;88.57
63500;BME280;49654;51.142;14.924;2023-08-06T01:08:28;98341.09;;;17.42;88.44
63500;BME280;49654;51.142;14.924;2023-08-06T01:11:08;98318.06;;;17.27;88.64
63500;BME280;49654;51.142;14.924;2023-08-06T01:13:42;98337.69;;;17.24;88.47
63500;BME280;49654;51.142;14.924;2023-08-06T01:16:11;98273.28;;;17.00;89.29
63500;BME280;49654;51.142;14.924;2023-08-06T01:18:38;98316.28;;;17.33;88.59
63500;BME280;49654;51.142;14.924;2023-08-06T01:21:08;98238.69;;;16.86;88.49
63500;BME280;49654;51.142;14.924;2023-08-06T01:23:36;98315.75;;;17.47;88.27
63500;BME280;49654;51.142;14.924;2023-08-06T01:26:10;98288.88;;;17.40;87.43
63500;BME280;49654;51.142;14.924;2023-08-06T01:28:44;98293.78;;;17.37;86.16
63500;BME280;49654;51.142;14.924;2023-08-06T01:31:18;98321.16;;;17.41;86.71
63500;BME280;49654;51.142;14.924;2023-08-06T01:33:49;98269.00;;;17.11;87.06
63500;BME280;49654;51.142;14.924;2023-08-06T01:36:19;98312.09;;;17.32;87.63
63500;BME280;49654;51.142;14.924;2023-08-06T01:38:47;98311.44;;;17.24;87.88
63500;BME280;49654;51.142;14.924;2023-08-06T01:41:14;98305.41;;;17.24;88.47
63500;BME280;49654;51.142;14.924;2023-08-06T01:43:41;98284.66;;;17.06;87.92
63500;BME280;49654;51.142;14.924;2023-08-06T01:46:08;98286.63;;;17.15;87.93
63500;BME280;49654;51.142;14.924;2023-08-06T01:48:35;98283.16;;;17.10;87.54
63500;BME280;49654;51.142;14.924;2023-08-06T01:51:04;98289.34;;;17.03;88.24
63500;BME280;49654;51.142;14.924;2023-08-06T01:53:32;98290.69;;;17.06;88.82
63500;BME280;49654;51.142;14.924;2023-08-06T01:55:59;98300.00;;;17.14;89.02
63500;BME280;49654;51.142;14.924;2023-08-06T01:58:26;98175.16;;;16.34;88.91
63500;BME280;49654;51.142;14.924;2023-08-06T02:00:53;98274.63;;;17.02;88.86
63500;BME280;49654;51.142;14.924;2023-08-06T02:03:20;98263.34;;;17.02;88.69
63500;BME280;49654;51.142;14.924;2023-08-06T02:05:48;98244.25;;;16.90;88.86
63500;BME280;49654;51.142;14.924;2023-08-06T02:08:15;98268.53;;;17.31;86.43
63500;BME280;49654;51.142;14.924;2023-08-06T02:10:44;98245.06;;;17.07;87.06
63500;BME280;49654;51.142;14.924;2023-08-06T02:13:11;98266.06;;;17.24;86.50
63500;BME280;49654;51.142;14.924;2023-08-06T02:15:42;98263.75;;;17.27;86.38
63500;BME280;49654;51.142;14.924;2023-08-06T02:18:09;98256.28;;;17.19;86.48
63500;BME280;49654;51.142;14.924;2023-08-06T02:20:36;98249.19;;;17.03;86.95
63500;BME280;49654;51.142;14.924;2023-08-06T02:23:03;98239.88;;;16.95;87.68
63500;BME280;49654;51.142;14.924;2023-08-06T02:25:30;98243.63;;;16.99;87.99
63500;BME280;49654;51.142;14.924;2023-08-06T02:27:59;98119.00;;;16.13;87.61
63500;BME280;49654;51.142;14.924;2023-08-06T02:30:26;98211.31;;;16.65;89.17
63500;BME280;49654;51.142;14.924;2023-08-06T02:32:53;98237.25;;;16.78;89.11
63500;BME280;49654;51.142;14.924;2023-08-06T02:35:20;98131.22;;;16.07;89.74
63500;BME280;49654;51.142;14.924;2023-08-06T02:37:47;98194.81;;;16.65;88.55
63500;BME280;49654;51.142;14.924;2023-08-06T02:40:14;98195.38;;;16.67;88.26
63500;BME280;49654;51.142;14.924;2023-08-06T02:42:41;98167.00;;;16.47;87.86
63500;BME280;49654;51.142;14.924;2023-08-06T02:45:10;98207.72;;;16.83;87.48
63500;BME280;49654;51.142;14.924;2023-08-06T02:47:37;98233.38;;;16.98;87.24
63500;BME280;49654;51.142;14.924;2023-08-06T02:50:05;98228.59;;;16.95;88.22
63500;BME280;49654;51.142;14.924;2023-08-06T02:52:32;98210.97;;;16.73;88.42
63500;BME280;49654;51.142;14.924;2023-08-06T02:54:59;98198.25;;;16.82;88.23
63500;BME280;49654;51.142;14.924;2023-08-06T02:57:26;98219.72;;;16.96;88.56
63500;BME280;49654;51.142;14.924;2023-08-06T02:59:54;98216.78;;;16.92;88.60
63500;BME280;49654;51.142;14.924;2023-08-06T03:02:22;98151.34;;;16.52;87.25
63500;BME280;49654;51.142;14.924;2023-08-06T03:04:49;98216.22;;;16.90;88.09
63500;BME280;49654;51.142;14.924;2023-08-06T03:07:16;98215.44;;;16.90;88.19
63500;BME280;49654;51.142;14.924;2023-08-06T03:09:43;98137.38;;;16.46;87.47
63500;BME280;49654;51.142;14.924;2023-08-06T03:12:10;98133.63;;;16.42;87.69
63500;BME280;49654;51.142;14.924;2023-08-06T03:14:38;98107.25;;;16.15;88.61
63500;BME280;49654;51.142;14.924;2023-08-06T03:17:05;98206.53;;;16.91;88.40
63500;BME280;49654;51.142;14.924;2023-08-06T03:19:33;98169.69;;;16.52;87.12
63500;BME280;49654;51.142;14.924;2023-08-06T03:22:00;98186.91;;;16.48;89.02
63500;BME280;49654;51.142;14.924;2023-08-06T03:24:27;98178.66;;;16.56;89.78
63500;BME280;49654;51.142;14.924;2023-08-06T03:26:54;98076.47;;;15.77;89.31
63500;BME280;49654;51.142;14.924;2023-08-06T03:29:21;98165.47;;;16.51;90.69
63500;BME280;49654;51.142;14.924;2023-08-06T03:31:48;98144.59;;;16.39;90.18
63500;BME280;49654;51.142;14.924;2023-08-06T03:34:15;98151.84;;;16.49;89.30
63500;BME280;49654;51.142;14.924;2023-08-06T03:36:43;98147.69;;;16.70;88.64
63500;BME280;49654;51.142;14.924;2023-08-06T03:39:10;98149.91;;;16.61;88.42
63500;BME280;49654;51.142;14.924;2023-08-06T03:41:39;98151.53;;;16.62;89.18
63500;BME280;49654;51.142;14.924;2023-08-06T03:44:06;98150.63;;;16.57;89.18
63500;BME280;49654;51.142;14.924;2023-08-06T03:46:33;98040.16;;;15.81;89.27
63500;BME280;49654;51.142;14.924;2023-08-06T03:49:00;98152.31;;;16.63;89.50
63500;BME280;49654;51.142;14.924;2023-08-06T03:51:28;98010.00;;;15.78;88.90
63500;BME280;49654;51.142;14.924;2023-08-06T03:53:56;98144.38;;;16.58;88.63
63500;BME280;49654;51.142;14.924;2023-08-06T03:56:23;98146.91;;;16.52;89.57
63500;BME280;49654;51.142;14.924;2023-08-06T03:58:50;98058.75;;;16.13;88.61
63500;BME280;49654;51.142;14.924;2023-08-06T04:01:17;98139.28;;;16.68;89.12
63500;BME280;49654;51.142;14.924;2023-08-06T04:03:44;98134.22;;;16.78;88.88
63500;BME280;49654;51.142;14.924;2023-08-06T04:06:11;98063.75;;;16.31;88.92
63500;BME280;49654;51.142;14.924;2023-08-06T04:08:38;98130.31;;;16.64;88.71
63500;BME280;49654;51.142;14.924;2023-08-06T04:11:06;98119.69;;;16.53;89.51
63500;BME280;49654;51.142;14.924;2023-08-06T04:13:34;98121.66;;;16.46;89.12
63500;BME280;49654;51.142;14.924;2023-08-06T04:16:01;98110.06;;;16.59;89.79
63500;BME280;49654;51.142;14.924;2023-08-06T04:18:28;98117.53;;;16.67;89.50
63500;BME280;49654;51.142;14.924;2023-08-06T04:20:55;98114.91;;;16.34;89.08
63500;BME280;49654;51.142;14.924;2023-08-06T04:23:23;98111.88;;;16.42;90.49
63500;BME280;49654;51.142;14.924;2023-08-06T04:25:50;98027.56;;;15.94;89.75
63500;BME280;49654;51.142;14.924;2023-08-06T04:28:19;98075.47;;;16.40;89.73
63500;BME280;49654;51.142;14.924;2023-08-06T04:30:46;98103.88;;;16.32;89.51
63500;BME280;49654;51.142;14.924;2023-08-06T04:33:13;98099.91;;;16.46;90.29
63500;BME280;49654;51.142;14.924;2023-08-06T04:35:40;98035.75;;;16.15;89.95
63500;BME280;49654;51.142;14.924;2023-08-06T04:38:07;98100.22;;;16.66;89.29
63500;BME280;49654;51.142;14.924;2023-08-06T04:40:35;98040.09;;;16.26;90.04
63500;BME280;49654;51.142;14.924;2023-08-06T04:43:02;98072.19;;;16.50;89.57
63500;BME280;49654;51.142;14.924;2023-08-06T04:45:31;98100.03;;;16.56;89.61
63500;BME280;49654;51.142;14.924;2023-08-06T04:47:58;98094.88;;;16.44;89.75
63500;BME280;49654;51.142;14.924;2023-08-06T04:50:25;98069.66;;;16.38;89.92
63500;BME280;49654;51.142;14.924;2023-08-06T04:52:52;98093.75;;;16.57;90.14
63500;BME280;49654;51.142;14.924;2023-08-06T04:55:19;98081.94;;;16.71;89.01
63500;BME280;49654;51.142;14.924;2023-08-06T04:57:46;98079.25;;;16.66;88.26
63500;BME280;49654;51.142;14.924;2023-08-06T05:00:13;98084.56;;;16.55;88.37
63500;BME280;49654;51.142;14.924;2023-08-06T05:02:41;98079.34;;;16.38;88.02
63500;BME280;49654;51.142;14.924;2023-08-06T05:05:08;98075.28;;;16.47;89.56
63500;BME280;49654;51.142;14.924;2023-08-06T05:07:35;98072.84;;;16.40;89.02
63500;BME280;49654;51.142;14.924;2023-08-06T05:10:02;98078.47;;;16.49;89.81
63500;BME280;49654;51.142;14.924;2023-08-06T05:12:30;98073.78;;;16.51;88.30
63500;BME280;49654;51.142;14.924;2023-08-06T05:14:57;98055.03;;;16.42;89.46
63500;BME280;49654;51.142;14.924;2023-08-06T05:17:24;98077.56;;;16.60;88.54
63500;BME280;49654;51.142;14.924;2023-08-06T05:19:52;98016.06;;;16.29;88.76
63500;BME280;49654;51.142;14.924;2023-08-06T05:22:19;98068.66;;;16.61;88.16
63500;BME280;49654;51.142;14.924;2023-08-06T05:24:46;98028.59;;;16.44;88.71
63500;BME280;49654;51.142;14.924;2023-08-06T05:27:13;98001.28;;;16.40;87.88
63500;BME280;49654;51.142;14.924;2023-08-06T05:29:40;97983.84;;;16.28;87.79
63500;BME280;49654;51.142;14.924;2023-08-06T05:32:07;98064.00;;;16.80;87.38
63500;BME280;49654;51.142;14.924;2023-08-06T05:34:34;98014.22;;;16.46;87.71
63500;BME280;49654;51.142;14.924;2023-08-06T05:37:03;98017.63;;;16.64;87.82
63500;BME280;49654;51.142;14.924;2023-08-06T05:39:30;98064.78;;;16.81;87.23
63500;BME280;49654;51.142;14.924;2023-08-06T05:41:57;98066.22;;;16.88;87.41
63500;BME280;49654;51.142;14.924;2023-08-06T05:44:24;98065.34;;;16.83;86.22
63500;BME280;49654;51.142;14.924;2023-08-06T05:46:51;98067.88;;;16.94;87.17
63500;BME280;49654;51.142;14.924;2023-08-06T05:49:19;98074.84;;;17.06;87.39
63500;BME280;49654;51.142;14.924;2023-08-06T05:51:46;97932.75;;;16.09;87.14
63500;BME280;49654;51.142;14.924;2023-08-06T05:54:15;98067.78;;;16.89;88.12
63500;BME280;49654;51.142;14.924;2023-08-06T05:56:42;98075.16;;;17.09;87.00
63500;BME280;49654;51.142;14.924;2023-08-06T05:59:09;98028.41;;;16.67;87.18
63500;BME280;49654;51.142;14.924;2023-08-06T06:01:36;98065.25;;;16.94;87.20
63500;BME280;49654;51.142;14.924;2023-08-06T06:04:03;98075.91;;;16.88;87.68
63500;BME280;49654;51.142;14.924;2023-08-06T06:06:30;98075.34;;;16.86;86.85
63500;BME280;49654;51.142;14.924;2023-08-06T06:08:57;98060.34;;;16.81;87.09
63500;BME280;49654;51.142;14.924;2023-08-06T06:11:26;98052.38;;;16.93;87.19
63500;BME280;49654;51.142;14.924;2023-08-06T06:13:53;98077.94;;;17.02;87.08
63500;BME280;49654;51.142;14.924;2023-08-06T06:16:20;98036.88;;;16.91;86.95
63500;BME280;49654;51.142;14.924;2023-08-06T06:18:47;98066.19;;;17.27;86.02
63500;BME280;49654;51.142;14.924;2023-08-06T06:21:14;98067.09;;;17.16;85.57
63500;BME280;49654;51.142;14.924;2023-08-06T06:23:41;98066.19;;;17.27;85.73
63500;BME280;49654;51.142;14.924;2023-08-06T06:26:08;98065.81;;;17.18;85.80
63500;BME280;49654;51.142;14.924;2023-08-06T06:28:37;98057.38;;;17.16;86.30
63500;BME280;49654;51.142;14.924;2023-08-06T06:31:04;98070.06;;;17.24;85.68
63500;BME280;49654;51.142;14.924;2023-08-06T06:33:31;98051.97;;;17.23;85.99
63500;BME280;49654;51.142;14.924;2023-08-06T06:35:58;98042.22;;;17.18;85.12
63500;BME280;49654;51.142;14.924;2023-08-06T06:38:24;98059.69;;;17.13;84.79
63500;BME280;49654;51.142;14.924;2023-08-06T06:40:55;98038.97;;;17.11;86.38
63500;BME280;49654;51.142;14.924;2023-08-06T06:43:22;98057.03;;;17.30;86.16
63500;BME280;49654;51.142;14.924;2023-08-06T06:45:55;98034.44;;;17.28;86.24
63500;BME280;49654;51.142;14.924;2023-08-06T06:48:24;98058.19;;;17.39;85.73
63500;BME280;49654;51.142;14.924;2023-08-06T06:50:51;98040.78;;;17.33;85.14
63500;BME280;49654;51.142;14.924;2023-08-06T06:53:18;98059.63;;;17.30;85.49
63500;BME280;49654;51.142;14.924;2023-08-06T06:55:45;98067.22;;;17.48;85.37
63500;BME280;49654;51.142;14.924;2023-08-06T06:58:14;98044.44;;;17.53;84.85
63500;BME280;49654;51.142;14.924;2023-08-06T07:00:42;98063.16;;;17.62;84.36
63500;BME280;49654;51.142;14.924;2023-08-06T07:03:10;98064.66;;;17.53;84.33
63500;BME280;49654;51.142;14.924;2023-08-06T07:05:37;98050.56;;;17.64;83.92
63500;BME280;49654;51.142;14.924;2023-08-06T07:08:04;98055.78;;;17.59;83.77
63500;BME280;49654;51.142;14.924;2023-08-06T07:10:31;98053.28;;;17.69;83.93
63500;BME280;49654;51.142;14.924;2023-08-06T07:12:58;98051.06;;;17.83;82.90
63500;BME280;49654;51.142;14.924;2023-08-06T07:15:26;98045.41;;;17.96;83.28
63500;BME280;49654;51.142;14.924;2023-08-06T07:17:53;98046.13;;;17.87;81.57
63500;BME280;49654;51.142;14.924;2023-08-06T07:20:21;98045.94;;;17.71;83.30
63500;BME280;49654;51.142;14.924;2023-08-06T07:22:48;98026.34;;;17.30;85.46
63500;BME280;49654;51.142;14.924;2023-08-06T07:25:16;97915.66;;;16.62;85.74
63500;BME280;49654;51.142;14.924;2023-08-06T07:27:43;97976.78;;;17.34;84.65
63500;BME280;49654;51.142;14.924;2023-08-06T07:30:10;98035.81;;;17.80;83.32
63500;BME280;49654;51.142;14.924;2023-08-06T07:32:37;98035.69;;;17.70;83.71
63500;BME280;49654;51.142;14.924;2023-08-06T07:35:05;98002.28;;;17.38;83.42
63500;BME280;49654;51.142;14.924;2023-08-06T07:37:35;97994.97;;;17.67;84.64
63500;BME280;49654;51.142;14.924;2023-08-06T07:40:02;98031.28;;;17.75;83.20
63500;BME280;49654;51.142;14.924;2023-08-06T07:42:30;98011.72;;;17.88;83.29
63500;BME280;49654;51.142;14.924;2023-08-06T07:44:58;98024.69;;;18.00;82.42
63500;BME280;49654;51.142;14.924;2023-08-06T07:47:25;98015.28;;;18.04;83.49
63500;BME280;49654;51.142;14.924;2023-08-06T07:49:52;98016.13;;;17.83;83.49
63500;BME280;49654;51.142;14.924;2023-08-06T07:52:19;98008.75;;;17.80;84.31
63500;BME280;49654;51.142;14.924;2023-08-06T07:54:48;98010.63;;;17.84;84.01
63500;BME280;49654;51.142;14.924;2023-08-06T07:57:15;98011.56;;;17.73;83.60
63500;BME280;49654;51.142;14.924;2023-08-06T07:59:42;98013.34;;;17.67;84.49
63500;BME280;49654;51.142;14.924;2023-08-06T08:02:09;97994.97;;;17.67;84.25
63500;BME280;49654;51.142;14.924;2023-08-06T08:04:36;98002.09;;;17.72;84.37
63500;BME280;49654;51.142;14.924;2023-08-06T08:07:04;97976.53;;;17.62;84.88
63500;BME280;49654;51.142;14.924;2023-08-06T08:09:31;97927.00;;;17.39;84.01
63500;BME280;49654;51.142;14.924;2023-08-06T08:11:59;97993.56;;;17.82;84.98
63500;BME280;49654;51.142;14.924;2023-08-06T08:14:28;97952.28;;;17.77;83.71
63500;BME280;49654;51.142;14.924;2023-08-06T08:17:01;97985.63;;;18.09;83.75
63500;BME280;49654;51.142;14.924;2023-08-06T08:19:28;97979.72;;;18.29;82.31
63500;BME280;49654;51.142;14.924;2023-08-06T08:21:55;97960.19;;;18.14;82.33
63500;BME280;49654;51.142;14.924;2023-08-06T08:24:22;97949.38;;;18.58;81.41
63500;BME280;49654;51.142;14.924;2023-08-06T08:26:50;97960.31;;;18.77;80.52
63500;BME280;49654;51.142;14.924;2023-08-06T08:29:19;97969.94;;;18.66;79.98
63500;BME280;49654;51.142;14.924;2023-08-06T08:31:46;97899.00;;;18.24;79.47
63500;BME280;49654;51.142;14.924;2023-08-06T08:34:15;97956.41;;;18.85;80.42
63500;BME280;49654;51.142;14.924;2023-08-06T08:36:41;97954.00;;;18.78;77.62
63500;BME280;49654;51.142;14.924;2023-08-06T08:39:09;97959.50;;;18.76;78.67
63500;BME280;49654;51.142;14.924;2023-08-06T08:41:37;97947.78;;;18.47;79.87
63500;BME280;49654;51.142;14.924;2023-08-06T08:44:08;97964.00;;;18.34;81.00
63500;BME280;49654;51.142;14.924;2023-08-06T08:46:40;97864.09;;;17.81;81.36
63500;BME280;49654;51.142;14.924;2023-08-06T08:49:07;97793.22;;;17.44;80.99
63500;BME280;49654;51.142;14.924;2023-08-06T08:51:35;97888.75;;;18.17;79.99
63500;BME280;49654;51.142;14.924;2023-08-06T08:54:03;97943.34;;;18.63;80.35
63500;BME280;49654;51.142;14.924;2023-08-06T08:56:31;97940.06;;;18.30;80.37
63500;BME280;49654;51.142;14.924;2023-08-06T08:58:58;97942.94;;;18.29;81.15
63500;BME280;49654;51.142;14.924;2023-08-06T09:01:26;97941.34;;;18.27;82.32
63500;BME280;49654;51.142;14.924;2023-08-06T09:03:55;97944.03;;;17.95;82.32
63500;BME280;49654;51.142;14.924;2023-08-06T09:06:25;97934.16;;;17.75;83.23
63500;BME280;49654;51.142;14.924;2023-08-06T09:08:56;97937.06;;;17.79;84.13
63500;BME280;49654;51.142;14.924;2023-08-06T09:11:29;97937.41;;;17.88;84.43
63500;BME280;49654;51.142;14.924;2023-08-06T09:14:04;97937.13;;;17.89;84.14
63500;BME280;49654;51.142;14.924;2023-08-06T09:16:34;97936.19;;;18.00;83.81
63500;BME280;49654;51.142;14.924;2023-08-06T09:19:08;97930.44;;;18.04;84.25
63500;BME280;49654;51.142;14.924;2023-08-06T09:21:37;97930.69;;;18.07;83.60
63500;BME280;49654;51.142;14.924;2023-08-06T09:24:07;97925.41;;;18.02;83.15
63500;BME280;49654;51.142;14.924;2023-08-06T09:26:34;97922.09;;;18.12;83.61
63500;BME280;49654;51.142;14.924;2023-08-06T09:29:01;97917.38;;;18.19;82.61
63500;BME280;49654;51.142;14.924;2023-08-06T09:31:32;97922.59;;;18.14;83.52
63500;BME280;49654;51.142;14.924;2023-08-06T09:34:00;97919.97;;;17.76;83.17
63500;BME280;49654;51.142;14.924;2023-08-06T09:36:29;97903.53;;;17.59;84.17
63500;BME280;49654;51.142;14.924;2023-08-06T09:38:56;97924.91;;;17.41;84.42
63500;BME280;49654;51.142;14.924;2023-08-06T09:41:26;97927.25;;;17.69;86.35
63500;BME280;49654;51.142;14.924;2023-08-06T09:43:55;97865.88;;;17.11;86.24
63500;BME280;49654;51.142;14.924;2023-08-06T09:46:22;97824.63;;;16.74;86.02
63500;BME280;49654;51.142;14.924;2023-08-06T09:48:50;97923.22;;;17.57;86.96
63500;BME280;49654;51.142;14.924;2023-08-06T09:51:17;97889.72;;;17.37;86.28
63500;BME280;49654;51.142;14.924;2023-08-06T09:53:47;97918.16;;;17.50;87.09
63500;BME280;49654;51.142;14.924;2023-08-06T09:56:17;97922.47;;;17.34;86.68
63500;BME280;49654;51.142;14.924;2023-08-06T09:58:47;97909.06;;;17.31;87.60
63500;BME280;49654;51.142;14.924;2023-08-06T10:01:15;97914.75;;;17.49;87.47
63500;BME280;49654;51.142;14.924;2023-08-06T10:03:43;97918.72;;;17.52;88.23
63500;BME280;49654;51.142;14.924;2023-08-06T10:06:11;97917.63;;;17.48;88.08
63500;BME280;49654;51.142;14.924;2023-08-06T10:08:38;97887.84;;;17.32;87.10
63500;BME280;49654;51.142;14.924;2023-08-06T10:11:08;97905.59;;;17.25;88.18
63500;BME280;49654;51.142;14.924;2023-08-06T10:13:36;97906.09;;;17.49;87.69
63500;BME280;49654;51.142;14.924;2023-08-06T10:16:04;97901.31;;;17.73;86.84
63500;BME280;49654;51.142;14.924;2023-08-06T10:18:32;97809.81;;;17.17;86.48
63500;BME280;49654;51.142;14.924;2023-08-06T10:21:00;97887.97;;;17.80;85.61
63500;BME280;49654;51.142;14.924;2023-08-06T10:23:33;97875.22;;;17.61;86.94
63500;BME280;49654;51.142;14.924;2023-08-06T10:26:01;97892.09;;;17.70;85.97
63500;BME280;49654;51.142;14.924;2023-08-06T10:28:36;97887.19;;;17.79;85.65
63500;BME280;49654;51.142;14.924;2023-08-06T10:31:03;97851.59;;;17.61;85.03
63500;BME280;49654;51.142;14.924;2023-08-06T10:33:41;97876.28;;;18.02;85.87
63500;BME280;49654;51.142;14.924;2023-08-06T10:36:10;97881.28;;;17.99;85.01
63500;BME280;49654;51.142;14.924;2023-08-06T10:38:45;97882.28;;;17.93;85.73
63500;BME280;49654;51.142;14.924;2023-08-06T10:41:16;97875.22;;;17.98;85.19
63500;BME280;49654;51.142;14.924;2023-08-06T10:43:47;97867.25;;;18.25;84.24
63500;BME280;49654;51.142;14.924;2023-08-06T10:46:22;97858.53;;;18.20;84.96
63500;BME280;49654;51.142;14.924;2023-08-06T10:48:50;97868.16;;;17.99;83.43
63500;BME280;49654;51.142;14.924;2023-08-06T10:51:17;97866.31;;;17.99;84.74
63500;BME280;49654;51.142;14.924;2023-08-06T10:53:45;97864.84;;;18.24;83.57
63500;BME280;49654;51.142;14.924;2023-08-06T10:56:13;97861.50;;;18.34;82.64
63500;BME280;49654;51.142;14.924;2023-08-06T10:58:40;97860.44;;;18.30;81.55
63500;BME280;49654;51.142;14.924;2023-08-06T11:01:10;97862.78;;;18.31;82.12
63500;BME280;49654;51.142;14.924;2023-08-06T11:03:38;97830.34;;;18.00;83.40
63500;BME280;49654;51.142;14.924;2023-08-06T11:06:06;97859.78;;;18.07;82.62
63500;BME280;49654;51.142;14.924;2023-08-06T11:08:35;97756.13;;;16.98;83.70
63500;BME280;49654;51.142;14.924;2023-08-06T11:11:09;97860.34;;;17.40;86.01
63500;BME280;49654;51.142;14.924;2023-08-06T11:13:38;97858.03;;;17.43;87.44
63500;BME280;49654;51.142;14.924;2023-08-06T11:16:06;97861.03;;;17.62;88.04
63500;BME280;49654;51.142;14.924;2023-08-06T11:18:35;97756.09;;;16.93;88.61
63500;BME280;49654;51.142;14.924;2023-08-06T11:21:02;97859.00;;;17.69;88.87
63500;BME280;49654;51.142;14.924;2023-08-06T11:23:29;97833.50;;;17.65;86.81
63500;BME280;49654;51.142;14.924;2023-08-06T11:25:57;97833.28;;;17.71;85.29
63500;BME280;49654;51.142;14.924;2023-08-06T11:28:24;97860.41;;;18.24;85.38
63500;BME280;49654;51.142;14.924;2023-08-06T11:30:52;97855.28;;;18.55;83.54
63500;BME280;49654;51.142;14.924;2023-08-06T11:33:21;97850.63;;;18.72;82.75
63500;BME280;49654;51.142;14.924;2023-08-06T11:35:50;97854.84;;;18.84;80.82
63500;BME280;49654;51.142;14.924;2023-08-06T11:38:17;97857.56;;;19.24;80.10
63500;BME280;49654;51.142;14.924;2023-08-06T11:40:44;97858.88;;;19.32;79.13
63500;BME280;49654;51.142;14.924;2023-08-06T11:43:11;97820.97;;;19.02;79.24
63500;BME280;49654;51.142;14.924;2023-08-06T11:45:39;97850.09;;;18.70;79.11
63500;BME280;49654;51.142;14.924;2023-08-06T11:48:06;97851.03;;;18.49;80.45
63500;BME280;49654;51.142;14.924;2023-08-06T11:50:36;97855.78;;;18.47;81.95
63500;BME280;49654;51.142;14.924;2023-08-06T11:53:05;97861.06;;;18.52;81.85
63500;BME280;49654;51.142;14.924;2023-08-06T11:55:33;97856.44;;;18.17;81.72
63500;BME280;49654;51.142;14.924;2023-08-06T11:58:03;97867.72;;;17.75;82.93
63500;BME280;49654;51.142;14.924;2023-08-06T12:00:30;97856.09;;;17.66;84.96
63500;BME280;49654;51.142;14.924;2023-08-06T12:02:58;97864.34;;;17.80;85.45
63500;BME280;49654;51.142;14.924;2023-08-06T12:05:29;97861.03;;;17.94;84.13
63500;BME280;49654;51.142;14.924;2023-08-06T12:08:00;97853.38;;;17.88;84.89
63500;BME280;49654;51.142;14.924;2023-08-06T12:10:29;97853.41;;;17.93;83.22
63500;BME280;49654;51.142;14.924;2023-08-06T12:12:56;97858.84;;;17.81;85.23
63500;BME280;49654;51.142;14.924;2023-08-06T12:15:24;97858.63;;;17.88;84.60
63500;BME280;49654;51.142;14.924;2023-08-06T12:17:51;97855.53;;;17.96;83.60
63500;BME280;49654;51.142;14.924;2023-08-06T12:20:18;97856.03;;;17.93;83.20
63500;BME280;49654;51.142;14.924;2023-08-06T12:22:45;97780.44;;;17.58;83.38
63500;BME280;49654;51.142;14.924;2023-08-06T12:25:12;97856.88;;;18.04;83.49
63500;BME280;49654;51.142;14.924;2023-08-06T12:27:42;97845.34;;;18.05;83.49
63500;BME280;49654;51.142;14.924;2023-08-06T12:30:10;97858.44;;;17.99;83.68
63500;BME280;49654;51.142;14.924;2023-08-06T12:32:38;97854.78;;;18.06;83.87
63500;BME280;49654;51.142;14.924;2023-08-06T12:35:06;97858.94;;;17.96;82.63
63500;BME280;49654;51.142;14.924;2023-08-06T12:37:34;97858.75;;;18.08;84.89
63500;BME280;49654;51.142;14.924;2023-08-06T12:40:01;97836.66;;;17.67;83.02
63500;BME280;49654;51.142;14.924;2023-08-06T12:42:28;97853.22;;;17.72;84.52
63500;BME280;49654;51.142;14.924;2023-08-06T12:44:56;97851.56;;;17.93;85.31
63500;BME280;49654;51.142;14.924;2023-08-06T12:47:23;97839.31;;;18.09;85.64
63500;BME280;49654;51.142;14.924;2023-08-06T12:49:50;97849.97;;;17.87;85.14
63500;BME280;49654;51.142;14.924;2023-08-06T12:52:17;97845.59;;;18.03;85.65
63500;BME280;49654;51.142;14.924;2023-08-06T12:54:45;97838.13;;;17.90;84.76